James Reserve, California Weather observations

Data are for 10 minute period ending at time listed.
 Day   Time   Solar   Ave.   Ave.  Ave.  Vector  Max.   Baro.   Total    
  of    of     Rad.   Air    Rel.  Wind   Wind   Wind  Press.  Precip.   
Year   Day            Temp.  Hum.  Speed  Dir.   Gust                    
2015   (PST)  Kw/m2    F      %     mph   deg.    mph    mb.     in.     
-------------------------------------------------------------------------
  86   21:50   0.00   45.1    55    0.2    16     0.4   843.0    0.00 
  86   22:00   0.00   44.9    55    0.3    23     0.5   843.0    0.00 
  86   22:10   0.00   44.7    54    0.3    15     0.5   843.0    0.00 
  86   22:20   0.00   44.3    54    0.3    22     0.5   843.0    0.00 
  86   22:30   0.00   44.1    52    0.3    19     0.5   843.0    0.00 
  86   22:40   0.00   43.8    52    0.2    11     0.4   843.0    0.00 
  86   22:50   0.00   43.6    51    0.3    18     0.4   843.0    0.00 
  86   23:00   0.00   43.2    52    0.3    31     0.5   843.0    0.00 
  86   23:10   0.00   43.2    51    0.3    15     0.5   843.0    0.00 
  86   23:20   0.00   43.0    51    0.3     2     0.4   843.0    0.00 
  86   23:30   0.00   42.9    52    0.3     9     0.5   843.0    0.00 
  86   23:40   0.00   42.8    52    0.3    19     0.4   843.0    0.00 
  86   23:50   0.00   42.6    53    0.3    20     0.5   843.0    0.00 
  87    0:00   0.00   42.8    53    0.3    33     0.5   843.0    0.00 
  87    0:10   0.00   42.6    55    0.3    23     0.5   843.0    0.00 
  87    0:20   0.00   42.6    55    0.2    11     0.4   842.0    0.00 
  87    0:30   0.00   42.4    56    0.3    25     0.6   842.0    0.00 
  87    0:40   0.00   42.3    55    0.3    33     0.5   842.0    0.00 
  87    0:50   0.00   42.3    56    0.2    20     0.4   842.0    0.00 
  87    1:00   0.00   42.0    57    0.3    30     0.5   842.0    0.00 
  87    1:10   0.00   42.0    57    0.3    23     0.5   842.0    0.00 
  87    1:20   0.00   41.8    59    0.3    34     0.5   842.0    0.00 
  87    1:30   0.00   41.7    58    0.3    26     0.8   842.0    0.00 
  87    1:40   0.00   41.6    57    0.3    26     0.6   842.0    0.00 
  87    1:50   0.00   41.3    58    0.3    35     0.6   842.0    0.00 
  87    2:00   0.00   41.3    56    0.3    21     0.6   842.0    0.00 
  87    2:10   0.00   41.0    56    0.3    18     0.4   842.0    0.00 
  87    2:20   0.00   40.7    56    0.3    27     0.5   842.0    0.00 
  87    2:30   0.00   40.5    56    0.2    22     0.4   842.0    0.00 
  87    2:40   0.00   40.4    56    0.3    28     0.6   842.0    0.00 
  87    2:50   0.00   40.3    55    0.3    28     0.6   842.0    0.00 
  87    3:00   0.00   40.3    55    0.3    21     0.6   842.0    0.00 
  87    3:10   0.00   39.9    56    0.3    29     0.5   842.0    0.00 
  87    3:20   0.00   39.8    56    0.3    33     0.5   842.0    0.00 
  87    3:30   0.00   39.8    56    0.3    26     0.7   842.0    0.00 
  87    3:40   0.00   39.7    55    0.3    28     0.7   842.0    0.00 
  87    3:50   0.00   39.7    55    0.3     8     0.5   842.0    0.00 
  87    4:00   0.00   39.5    55    0.3    30     0.6   842.0    0.00 
  87    4:10   0.00   39.5    55    0.2    23     0.6   842.0    0.00 
  87    4:20   0.00   39.4    54    0.3    34     0.5   842.0    0.00 
  87    4:30   0.00   39.2    54    0.3    30     0.7   842.0    0.00 
  87    4:40   0.00   39.1    53    0.2     8     0.4   842.0    0.00 
  87    4:50   0.00   38.9    54    0.4    25     0.6   842.0    0.00 
  87    5:00   0.00   38.7    54    0.3    26     0.5   842.0    0.00 
  87    5:10   0.00   38.6    55    0.3    20     0.6   842.0    0.00 
  87    5:20   0.00   38.4    55    0.3    15     0.5   842.0    0.00 
  87    5:30   0.00   38.2    55    0.3    27     0.7   842.0    0.00 
  87    5:40   0.00   38.1    54    0.3    27     0.6   842.0    0.00 
  87    5:50   0.00   38.0    55    0.3    22     0.4   842.0    0.00 
  87    6:00   0.00   37.9    55    0.3    30     0.5   842.0    0.00 
  87    6:10   0.01   38.0    55    0.3    30     0.5   842.0    0.00 
  87    6:20   0.01   38.1    55    0.3    31     0.5   842.0    0.00 
  87    6:30   0.01   38.2    56    0.3    30     0.6   842.0    0.00 
  87    6:40   0.01   38.1    56    0.3    33     0.6   842.0    0.00 
  87    6:50   0.02   38.3    57    0.4    41     0.6   842.0    0.00 
  87    7:00   0.02   38.7    56    0.5    45     0.7   842.0    0.00 
  87    7:10   0.03   39.2    57    0.5    45     0.7   842.0    0.00 
  87    7:20   0.04   40.0    55    0.5    46     0.8   842.0    0.00 
  87    7:30   0.05   41.1    53    0.8    49     1.1   842.0    0.00 
  87    7:40   0.03   42.1    51    0.9    51     1.0   842.0    0.00 
  87    7:50   0.03   43.0    51    0.8    51     0.9   842.0    0.00 
  87    8:00   0.04   44.0    50    0.7    52     0.9   842.0    0.00 
  87    8:10   0.04   45.2    48    0.7    54     0.9   842.0    0.00 
  87    8:20   0.04   46.7    47    0.7    58     0.9   842.0    0.00 
  87    8:30   0.05   48.5    44    0.6    66     0.9   843.0    0.00 
  87    8:40   0.06   50.7    40    0.5    56     1.0   843.0    0.00 
  87    8:50   0.06   53.0    39    0.6    56     1.1   843.0    0.00 
  87    9:00   0.05   55.9    36    0.2    90     0.6   843.0    0.00 
  87    9:10   0.05   57.6    34    0.2   106     0.5   843.0    0.00 
  87    9:20   0.05   60.5    29    0.4   192     1.1   842.0    0.00 
  87    9:30   0.30   64.6    19    0.8   202     1.6   842.0    0.00 
  87    9:40   0.69   65.9    15    0.7   182     1.9   842.0    0.00 
  87    9:50   0.21   66.4    19    0.8   189     1.7   842.0    0.00 
  87   10:00   0.05   66.4    21    0.8   142     1.8   842.0    0.00 
  87   10:10   0.05   66.7    21    0.9   200     2.3   842.0    0.00 
  87   10:20   0.06   67.0    20    0.9   187     2.1   843.0    0.00 
  87   10:30   0.06   66.8    20    1.1   183     2.6   842.0    0.00 
  87   10:40   0.06   66.7    16    1.0   162     2.8   842.0    0.00 
  87   10:50   0.07   67.9    13    1.0   176     2.7   842.0    0.00 
  87   11:00   0.89   68.9    14    1.0   200     2.4   842.0    0.00 
  87   11:10   1.03   68.4    14    1.0   184     2.6   842.0    0.00 
  87   11:20   1.03   68.4    14    1.1   150     3.5   842.0    0.00 
  87   11:30   1.03   67.7    14    1.1   134     2.7   842.0    0.00 
  87   11:40   1.04   69.2    13    1.1   186     2.5   842.0    0.00 
  87   11:50   1.03   69.8    14    0.9   167     2.1   842.0    0.00 
  87   12:00   1.03   69.7    13    1.1   146     2.6   842.0    0.00 
  87   12:10   1.03   69.5    12    1.0   160     2.5   842.0    0.00 
  87   12:20   1.03   69.7    12    1.0   200     2.6   842.0    0.00 
  87   12:30   1.02   69.8    12    0.9   165     2.8   842.0    0.00 
  87   12:40   1.03   69.9    12    1.1   176     3.9   842.0    0.00 
  87   12:50   1.01   69.4    12    1.2   174     3.4   842.0    0.00 
  87   13:00   0.99   69.9    13    1.0   189     2.2   842.0    0.00 
  87   13:10   0.97   70.0    12    1.1   161     2.9   841.0    0.00 
  87   13:20   0.94   70.0    14    0.9   141     2.7   841.0    0.00 
  87   13:30   0.92   70.3    16    1.1   153     2.6   841.0    0.00 
  87   13:40   0.90   70.0    16    1.0   254     3.0   841.0    0.00 
  87   13:50   0.88   71.0    16    0.8   158     2.2   841.0    0.00 
  87   14:00   0.85   71.4    15    0.9   188     2.5   841.0    0.00 
  87   14:10   0.83   70.8    15    1.1   148     2.9   841.0    0.00 
  87   14:20   0.80   70.7    15    0.9   184     2.4   841.0    0.00 
  87   14:30   0.77   69.5    14    0.9   169     2.6   841.0    0.00 
  87   14:40   0.74   69.8    14    1.1   199     2.5   841.0    0.00 
  87   14:50   0.71   69.5    14    1.0   211     2.5   841.0    0.00 
  87   15:00   0.67   69.7    16    1.0   150     2.5   841.0    0.00 
  87   15:10   0.63   69.8    17    1.1   176     2.9   841.0    0.00 
  87   15:20   0.53   68.6    16    0.7   127     1.6   841.0    0.00 
  87   15:30   0.55   68.8    16    0.8   141     1.8   841.0    0.00 
  87   15:40   0.27   68.4    19    0.6   206     1.6   841.0    0.00 
  87   15:50   0.07   68.4    19    0.7   189     2.3   841.0    0.00 
  87   16:00   0.08   67.9    19    0.9   135     2.1   841.0    0.00 
  87   16:10   0.05   67.2    20    0.7   208     1.7   841.0    0.00 
  87   16:20   0.06   66.9    21    0.9   106     3.1   841.0    0.00 
  87   16:30   0.04   66.7    22    0.7   184     2.3   841.0    0.00 
  87   16:40   0.03   65.9    25    0.7   228     1.9   841.0    0.00 
  87   16:50   0.03   65.3    27    0.6   222     2.2   841.0    0.00 
  87   17:00   0.03   64.7    28    0.7    78     1.6   841.0    0.00 
  87   17:10   0.02   63.8    29    0.4    68     1.2   841.0    0.00 
  87   17:20   0.02   63.1    30    0.5    92     1.3   841.0    0.00 
  87   17:30   0.01   62.0    32    0.4    55     0.9   841.0    0.00 
  87   17:40   0.01   60.7    34    0.4    33     1.1   841.0    0.00 
  87   17:50   0.01   59.2    36    0.3    10     0.6   841.0    0.00 
  87   18:00   0.00   57.8    38    0.4    26     0.8   841.0    0.00 
  87   18:10   0.00   56.5    39    0.5    44     0.8   841.0    0.00 
  87   18:20   0.00   55.4    42    0.4    41     0.6   841.0    0.00 
  87   18:30   0.00   54.2    44    0.2    16     0.5   841.0    0.00 
  87   18:40   0.00   53.1    45    0.2     5     0.6   841.0    0.00 
  87   18:50   0.00   52.0    46    0.2     1     0.5   841.0    0.00 
  87   19:00   0.00   51.1    48    0.3   359     0.5   841.0    0.00 
  87   19:10   0.00   50.2    48    0.3   357     0.6   841.0    0.00 
  87   19:20   0.00   49.6    49    0.3   355     0.5   841.0    0.00 
  87   19:30   0.00   49.0    51    0.3     1     0.6   841.0    0.00 
  87   19:40   0.00   48.6    52    0.3    15     0.6   842.0    0.00 
  87   19:50   0.00   48.4    51    0.2    33     0.5   842.0    0.00 
  87   20:00   0.00   48.1    52    0.3    22     0.5   842.0    0.00 
  87   20:10   0.00   47.8    52    0.3     6     0.5   842.0    0.00 
  87   20:20   0.00   47.2    52    0.2   350     0.4   842.0    0.00 
  87   20:30   0.00   46.6    53    0.3    22     0.5   842.0    0.00 
  87   20:40   0.00   46.1    53    0.3   356     0.7   842.0    0.00 
  87   20:50   0.00   45.6    54    0.2   354     0.5   842.0    0.00 
  87   21:00   0.00   45.3    54    0.3    11     0.6   842.0    0.00 
  87   21:10   0.00   45.0    53    0.3    10     0.6   842.0    0.00 
  87   21:20   0.00   45.0    51    0.3    25     0.5   842.0    0.00 
  87   21:30   0.00   45.1    48    0.3    30     0.6   842.0    0.00 
  87   21:40   0.00   45.1    47    0.4    28     0.7   842.0    0.00 

Return to James Reserve graphs page.


Western Regional Climate Center,wrcc@dri.edu